Time;durP1;ratioP1;P1;durP2;ratioP2;P2;SDS_P1;SDS_P2;PMS_P1;PMS_P2;Temp;Humidity;BMP_temperature;BMP_pressure;BME280_temperature;BME280_humidity;BME280_pressure;Samples;Min_cycle;Max_cycle;Signal;HPM_P1;HPM_P2
2022/09/23 00:01:21;;;;;;;5.53;2.22;;;8.50;68.80;;;;;;5057030;28;20040;-76
2022/09/23 00:03:49;;;;;;;2.35;1.90;;;8.50;68.80;;;;;;5040787;28;20501;-76
2022/09/23 00:06:17;;;;;;;3.50;2.20;;;8.50;69.00;;;;;;5075005;28;20127;-75
2022/09/23 00:08:43;;;;;;;4.45;2.20;;;8.40;69.00;;;;;;5042082;28;20047;-74
2022/09/23 00:11:13;;;;;;;2.35;1.90;;;8.40;69.00;;;;;;5041036;28;20036;-74
2022/09/23 00:13:39;;;;;;;4.28;1.90;;;8.30;69.20;;;;;;5062745;28;20032;-74
2022/09/23 00:16:05;;;;;;;3.15;2.20;;;8.30;69.10;;;;;;5055279;28;20040;-75
2022/09/23 00:18:31;;;;;;;3.20;2.00;;;8.30;69.20;;;;;;5058567;28;20035;-75
2022/09/23 00:20:56;;;;;;;2.70;1.90;;;8.30;69.30;;;;;;5070603;28;20043;-74
2022/09/23 00:23:22;;;;;;;2.67;2.45;;;8.30;69.50;;;;;;5026625;28;20040;-74
2022/09/23 00:26:01;;;;;;;5.40;2.10;;;8.20;69.50;;;;;;5055690;28;22797;-74
2022/09/23 00:28:27;;;;;;;2.42;2.20;;;8.20;69.90;;;;;;5070019;28;20150;-74
2022/09/23 00:30:52;;;;;;;4.00;2.20;;;8.10;69.60;;;;;;5038922;28;20660;-74
2022/09/23 00:33:18;;;;;;;3.78;2.20;;;8.10;69.70;;;;;;5067300;28;20044;-74
2022/09/23 00:35:43;;;;;;;1.80;1.55;;;8.10;69.80;;;;;;5071429;28;20535;-75
2022/09/23 00:38:09;;;;;;;3.17;2.10;;;8.10;69.90;;;;;;5058130;28;20040;-73
2022/09/23 00:40:35;;;;;;;3.20;2.00;;;8.10;69.90;;;;;;5044632;28;20036;-75
2022/09/23 00:43:00;;;;;;;4.20;2.38;;;8.00;70.00;;;;;;5044939;28;20047;-74
2022/09/23 00:45:26;;;;;;;2.30;2.10;;;8.00;70.10;;;;;;5026391;28;20523;-74
2022/09/23 00:47:52;;;;;;;2.40;2.20;;;8.00;70.20;;;;;;5028909;28;20036;-75
2022/09/23 00:50:25;;;;;;;2.67;2.00;;;7.90;70.20;;;;;;5057358;28;20139;-75
2022/09/23 00:52:52;;;;;;;2.35;2.10;;;7.90;70.40;;;;;;5044992;28;20032;-74
2022/09/23 00:55:42;;;;;;;2.70;2.25;;;7.90;70.50;;;;;;5053965;28;20672;-74
2022/09/23 00:58:09;;;;;;;4.30;2.38;;;7.90;71.00;;;;;;5060058;28;20490;-74
2022/09/23 01:00:35;;;;;;;2.20;1.88;;;7.80;70.60;;;;;;5039508;28;20036;-75
2022/09/23 01:03:01;;;;;;;2.22;1.88;;;7.80;70.70;;;;;;5038535;28;20062;-74
2022/09/23 01:05:26;;;;;;;3.30;2.00;;;7.80;70.80;;;;;;5038911;28;20086;-75
2022/09/23 01:07:53;;;;;;;2.22;1.88;;;7.80;70.90;;;;;;5039661;28;20044;-74
2022/09/23 01:10:20;;;;;;;2.20;2.00;;;7.70;70.90;;;;;;5026196;28;20052;-74
2022/09/23 01:13:04;;;;;;;2.55;1.85;;;7.70;71.00;;;;;;5066122;28;20033;-74
2022/09/23 01:15:47;;;;;;;2.30;2.10;;;7.70;71.40;;;;;;5068653;28;20043;-74
2022/09/23 01:18:31;;;;;;;2.95;1.73;;;7.70;71.40;;;;;;5038445;28;20035;-73
2022/09/23 01:21:22;;;;;;;2.95;2.10;;;7.70;71.60;;;;;;5076530;28;20045;-74
2022/09/23 01:24:12;;;;;;;2.22;2.03;;;7.60;71.30;;;;;;5058433;28;20036;-74
2022/09/23 01:27:00;;;;;;;2.75;1.90;;;7.60;71.60;;;;;;5042769;28;20545;-74
2022/09/23 01:29:39;;;;;;;1.90;1.80;;;7.60;71.70;;;;;;5049078;28;20535;-75
2022/09/23 01:32:16;;;;;;;3.90;2.00;;;7.60;71.60;;;;;;5086930;28;20039;-76
2022/09/23 01:35:06;;;;;;;2.17;1.85;;;7.50;71.60;;;;;;5034977;28;20067;-73
2022/09/23 01:37:53;;;;;;;3.88;2.00;;;7.50;71.60;;;;;;5046393;28;20048;-74
2022/09/23 01:40:22;;;;;;;3.40;1.73;;;7.50;71.70;;;;;;5057502;28;20591;-74
2022/09/23 01:42:51;;;;;;;3.53;2.00;;;7.50;71.70;;;;;;5041874;28;20040;-74
2022/09/23 01:45:21;;;;;;;2.78;2.20;;;7.40;71.80;;;;;;5070243;28;20031;-74
2022/09/23 01:47:49;;;;;;;2.70;2.10;;;7.40;71.90;;;;;;5054931;28;20040;-74
2022/09/23 01:53:11;;;;;;;2.00;1.85;;;7.40;72.10;;;;;;5058795;28;20063;-73
2022/09/23 01:55:39;;;;;;;4.03;1.95;;;7.30;72.20;;;;;;5018624;28;20097;-75
2022/09/23 01:58:11;;;;;;;3.75;2.13;;;7.30;72.10;;;;;;5042368;28;20488;-75
2022/09/23 02:00:39;;;;;;;3.33;2.28;;;7.30;72.30;;;;;;5070389;28;20126;-76
2022/09/23 02:03:20;;;;;;;2.92;2.00;;;7.30;72.30;;;;;;5026420;28;20601;-75
2022/09/23 02:05:57;;;;;;;4.57;2.05;;;7.20;72.60;;;;;;5039876;28;20032;-74
2022/09/23 02:08:31;;;;;;;2.33;1.90;;;7.20;72.40;;;;;;5056928;28;20052;-74
2022/09/23 02:11:06;;;;;;;1.85;1.65;;;7.20;72.50;;;;;;5042147;28;20654;-75
2022/09/23 02:13:58;;;;;;;2.30;1.85;;;7.10;72.50;;;;;;5070130;28;20090;-74
2022/09/23 02:16:25;;;;;;;4.80;2.28;;;7.10;72.60;;;;;;5066788;28;20040;-74
2022/09/23 02:19:06;;;;;;;2.20;1.50;;;7.10;72.60;;;;;;5054783;28;20039;-76
2022/09/23 02:21:33;;;;;;;2.80;1.88;;;7.10;72.80;;;;;;5058272;28;20100;-74
2022/09/23 02:24:11;;;;;;;3.50;1.70;;;7.10;72.70;;;;;;5042426;28;20032;-74
2022/09/23 02:26:44;;;;;;;2.33;1.95;;;7.10;73.00;;;;;;5056537;28;20035;-75
2022/09/23 02:29:15;;;;;;;2.35;2.00;;;7.00;72.80;;;;;;5054975;28;20028;-74
2022/09/23 02:32:12;;;;;;;2.13;1.90;;;7.00;73.00;;;;;;5058304;28;20051;-74
2022/09/23 02:34:49;;;;;;;2.33;1.60;;;7.00;73.30;;;;;;5070316;28;20483;-75
2022/09/23 02:37:26;;;;;;;3.55;2.10;;;7.00;73.10;;;;;;5026928;28;20119;-74
2022/09/23 02:39:59;;;;;;;2.03;1.83;;;6.90;73.10;;;;;;5058890;28;20071;-74
2022/09/23 02:42:40;;;;;;;2.42;2.00;;;6.90;73.10;;;;;;5054048;28;20672;-75
2022/09/23 02:45:06;;;;;;;2.15;1.95;;;6.90;73.40;;;;;;5037906;28;20040;-75
2022/09/23 02:47:31;;;;;;;5.88;2.13;;;6.90;73.20;;;;;;5058773;28;20373;-74
2022/09/23 02:49:57;;;;;;;2.20;1.95;;;6.80;73.10;;;;;;5058173;28;20563;-74
2022/09/23 02:52:23;;;;;;;2.53;2.00;;;6.80;73.20;;;;;;5040589;28;20041;-74
2022/09/23 02:54:49;;;;;;;3.92;1.88;;;6.80;73.30;;;;;;5072810;28;20066;-74
2022/09/23 02:57:15;;;;;;;2.88;1.75;;;6.80;73.40;;;;;;5070114;28;20056;-74
2022/09/23 02:59:40;;;;;;;1.65;1.55;;;6.70;73.40;;;;;;5045562;28;20115;-74
2022/09/23 03:02:29;;;;;;;3.15;2.03;;;6.70;73.50;;;;;;5057868;28;20131;-75
2022/09/23 03:05:17;;;;;;;2.03;1.77;;;6.70;73.90;;;;;;5073449;28;20057;-74
2022/09/23 03:08:01;;;;;;;3.80;1.98;;;6.70;73.90;;;;;;5076510;28;20025;-75
2022/09/23 03:10:46;;;;;;;2.58;1.90;;;6.70;74.00;;;;;;5063692;28;20108;-74
2022/09/23 03:13:18;;;;;;;3.53;1.90;;;6.60;73.70;;;;;;5057310;28;20036;-74
2022/09/23 03:16:07;;;;;;;2.53;2.33;;;6.60;73.80;;;;;;5046602;28;20064;-74
2022/09/23 03:18:54;;;;;;;1.77;1.50;;;6.60;73.90;;;;;;5060726;28;20028;-76
2022/09/23 03:21:22;;;;;;;4.95;1.98;;;6.60;73.90;;;;;;5058317;28;20040;-74
2022/09/23 03:23:47;;;;;;;2.28;2.08;;;6.50;73.80;;;;;;5060700;28;20036;-75
2022/09/23 03:26:17;;;;;;;2.50;2.30;;;6.50;73.90;;;;;;5075506;28;20071;-73
2022/09/23 03:28:43;;;;;;;2.15;1.92;;;6.50;74.10;;;;;;5061171;28;20704;-75
2022/09/23 03:31:10;;;;;;;3.75;2.03;;;6.50;74.10;;;;;;5054377;28;20040;-74
2022/09/23 03:33:36;;;;;;;2.10;1.90;;;6.50;74.10;;;;;;5055469;28;20036;-75
2022/09/23 03:38:51;;;;;;;2.90;2.15;;;6.40;74.20;;;;;;5048451;28;21079;-74
2022/09/23 03:41:36;;;;;;;1.80;1.70;;;6.40;74.20;;;;;;5071125;28;20044;-75
2022/09/23 03:44:02;;;;;;;2.70;2.08;;;6.40;74.40;;;;;;5028274;28;20039;-75
2022/09/23 03:46:29;;;;;;;3.70;2.25;;;6.40;74.40;;;;;;5028898;28;20024;-74
2022/09/23 03:49:09;;;;;;;3.47;2.40;;;6.40;74.50;;;;;;5058297;28;20052;-74
2022/09/23 03:51:34;;;;;;;2.80;2.10;;;6.30;74.70;;;;;;5038056;28;20029;-75
2022/09/23 03:54:00;;;;;;;2.47;1.95;;;6.30;74.50;;;;;;5017059;28;20041;-74
2022/09/23 03:56:25;;;;;;;2.35;1.90;;;6.30;74.50;;;;;;5067854;28;21195;-74
2022/09/23 03:58:51;;;;;;;3.05;2.00;;;6.30;74.60;;;;;;5038228;28;20048;-75
2022/09/23 04:01:16;;;;;;;4.00;2.53;;;6.30;74.60;;;;;;5038693;28;20036;-75
2022/09/23 04:03:42;;;;;;;2.95;2.17;;;6.20;74.70;;;;;;5046787;28;20116;-72
2022/09/23 04:06:08;;;;;;;2.17;1.92;;;6.20;74.80;;;;;;5058919;28;20051;-74
2022/09/23 04:08:33;;;;;;;2.63;2.08;;;6.20;74.90;;;;;;5059375;28;20115;-74
2022/09/23 04:11:03;;;;;;;2.15;1.92;;;6.20;74.90;;;;;;5047628;28;20028;-74
2022/09/23 04:13:29;;;;;;;2.25;2.10;;;6.20;75.00;;;;;;5017996;28;20478;-74
2022/09/23 04:15:54;;;;;;;4.60;2.08;;;6.10;74.90;;;;;;5045726;28;20040;-74
2022/09/23 04:18:20;;;;;;;3.22;2.38;;;6.10;75.10;;;;;;5043083;28;20040;-73
2022/09/23 04:20:46;;;;;;;2.38;2.17;;;6.10;75.20;;;;;;5058400;28;20033;-74
2022/09/23 04:23:11;;;;;;;3.33;1.92;;;6.10;75.20;;;;;;5059172;28;20104;-74
2022/09/23 04:25:44;;;;;;;2.00;1.90;;;6.10;75.30;;;;;;5063216;28;20056;-73
2022/09/23 04:28:10;;;;;;;3.88;2.10;;;6.10;75.50;;;;;;5059917;28;20041;-74
2022/09/23 04:30:40;;;;;;;2.40;2.15;;;6.10;75.40;;;;;;5055882;28;20040;-74
2022/09/23 04:33:05;;;;;;;2.33;2.13;;;6.10;75.50;;;;;;5068423;28;20048;-75
2022/09/23 04:35:31;;;;;;;2.78;1.98;;;6.10;75.50;;;;;;5029705;28;20033;-74
2022/09/23 04:37:57;;;;;;;4.13;1.90;;;6.10;75.60;;;;;;5042592;28;20067;-75
2022/09/23 04:40:22;;;;;;;3.00;1.80;;;6.10;75.60;;;;;;5059882;28;20119;-74
2022/09/23 04:42:49;;;;;;;3.58;2.45;;;6.10;75.60;;;;;;5042557;28;20066;-75
2022/09/23 04:45:14;;;;;;;2.58;1.98;;;6.00;75.70;;;;;;5045338;28;20382;-74
2022/09/23 04:47:40;;;;;;;3.50;2.13;;;6.10;75.80;;;;;;5041878;28;20044;-74
2022/09/23 04:50:06;;;;;;;2.53;1.67;;;6.00;75.70;;;;;;5070589;28;20560;-73
2022/09/23 04:52:31;;;;;;;2.83;2.03;;;6.10;76.00;;;;;;5046514;28;20058;-74
2022/09/23 04:54:57;;;;;;;2.67;2.25;;;6.10;76.00;;;;;;5079164;28;20506;-73
2022/09/23 04:57:23;;;;;;;2.97;1.80;;;6.00;76.00;;;;;;5075452;28;20044;-74
2022/09/23 04:59:49;;;;;;;2.92;2.28;;;6.00;76.10;;;;;;5043265;28;20042;-74
2022/09/23 05:02:15;;;;;;;3.70;2.30;;;6.00;76.10;;;;;;5074544;28;20096;-73
2022/09/23 05:04:40;;;;;;;3.28;2.72;;;6.10;76.20;;;;;;5030313;28;20547;-74
2022/09/23 05:07:06;;;;;;;2.63;2.42;;;6.10;76.30;;;;;;5006981;28;20564;-73
2022/09/23 05:09:31;;;;;;;6.32;2.60;;;6.10;76.40;;;;;;5075280;28;20487;-74
2022/09/23 05:11:57;;;;;;;2.85;2.55;;;6.10;76.40;;;;;;5033207;28;20025;-74
2022/09/23 05:14:22;;;;;;;4.05;2.90;;;6.00;76.40;;;;;;5079764;28;20040;-74
2022/09/23 05:16:48;;;;;;;3.33;2.78;;;6.10;76.50;;;;;;5063274;28;20032;-74
2022/09/23 05:19:14;;;;;;;3.35;2.58;;;6.10;76.60;;;;;;5042869;28;21253;-74
2022/09/23 05:21:39;;;;;;;5.57;3.13;;;6.10;76.60;;;;;;5065157;28;20031;-74
2022/09/23 05:24:05;;;;;;;4.43;2.63;;;6.10;76.70;;;;;;5063006;28;20032;-73
2022/09/23 05:26:31;;;;;;;11.00;3.20;;;6.10;76.80;;;;;;5040551;28;20738;-75
2022/09/23 05:28:57;;;;;;;3.05;2.63;;;6.10;76.80;;;;;;5046308;28;20079;-76
2022/09/23 05:31:24;;;;;;;4.20;2.85;;;6.10;76.90;;;;;;5027521;28;20498;-74
2022/09/23 05:33:57;;;;;;;2.58;2.13;;;6.10;77.00;;;;;;5075190;28;20056;-73
2022/09/23 05:36:23;;;;;;;3.47;2.83;;;6.10;77.10;;;;;;5052877;28;20032;-73
2022/09/23 05:38:49;;;;;;;4.07;2.70;;;6.10;77.10;;;;;;5045310;28;20827;-74
2022/09/23 05:41:15;;;;;;;3.78;2.72;;;6.10;77.10;;;;;;5057983;28;20079;-74
2022/09/23 05:43:40;;;;;;;4.57;2.50;;;6.10;77.20;;;;;;5074568;27;20059;-74
2022/09/23 05:46:13;;;;;;;6.82;3.40;;;6.20;77.30;;;;;;5077767;27;20719;-74
2022/09/23 05:48:39;;;;;;;4.82;2.35;;;6.20;77.50;;;;;;5074772;28;20067;-74
2022/09/23 05:51:07;;;;;;;3.67;2.60;;;6.20;77.40;;;;;;5047358;28;20082;-75
2022/09/23 05:53:33;;;;;;;4.30;2.63;;;6.20;77.40;;;;;;5060834;28;20047;-74
2022/09/23 05:55:59;;;;;;;4.25;3.20;;;6.20;77.50;;;;;;5059074;28;20454;-75
2022/09/23 05:58:26;;;;;;;6.30;3.17;;;6.20;78.40;;;;;;5061762;28;20036;-74
2022/09/23 06:00:54;;;;;;;2.90;2.70;;;6.20;77.70;;;;;;5061781;28;20097;-75
2022/09/23 06:03:20;;;;;;;3.70;2.75;;;6.30;77.90;;;;;;5061133;28;20107;-74
2022/09/23 06:05:46;;;;;;;2.60;2.35;;;6.30;77.90;;;;;;5062701;28;20032;-75
2022/09/23 06:08:11;;;;;;;5.65;2.72;;;6.30;78.00;;;;;;5057979;28;20089;-74
2022/09/23 06:10:37;;;;;;;3.30;2.22;;;6.30;78.00;;;;;;5061879;28;20032;-75
2022/09/23 06:13:03;;;;;;;5.03;2.70;;;6.40;78.30;;;;;;5076983;28;20033;-75
2022/09/23 06:15:29;;;;;;;4.38;2.67;;;6.40;78.20;;;;;;5064617;28;20058;-75
2022/09/23 06:17:54;;;;;;;3.90;2.83;;;6.40;78.20;;;;;;5074267;28;20036;-75
2022/09/23 06:20:20;;;;;;;10.45;3.03;;;6.50;78.40;;;;;;5045284;28;20060;-74
2022/09/23 06:22:45;;;;;;;4.18;3.00;;;6.50;78.30;;;;;;5060373;28;20158;-74
2022/09/23 06:25:11;;;;;;;3.70;2.90;;;6.50;78.40;;;;;;5079681;28;20066;-75
2022/09/23 06:27:37;;;;;;;4.20;3.03;;;6.50;78.50;;;;;;5059894;28;20039;-74
2022/09/23 06:30:05;;;;;;;3.28;2.72;;;6.50;78.50;;;;;;5075345;28;20047;-74
2022/09/23 06:32:31;;;;;;;4.55;2.70;;;6.60;78.70;;;;;;5061877;28;20035;-74
2022/09/23 06:34:57;;;;;;;4.45;3.30;;;6.60;78.60;;;;;;5063426;28;20047;-75
2022/09/23 06:37:23;;;;;;;3.72;3.03;;;6.60;78.50;;;;;;5080240;28;20051;-73
2022/09/23 06:39:48;;;;;;;5.55;3.88;;;6.70;78.60;;;;;;5065800;28;20036;-74
2022/09/23 06:42:15;;;;;;;5.88;3.92;;;6.70;78.60;;;;;;5062366;28;20059;-75
2022/09/23 06:44:41;;;;;;;4.22;3.60;;;6.80;78.70;;;;;;5063102;28;20033;-74
2022/09/23 06:47:06;;;;;;;4.50;3.63;;;6.80;78.70;;;;;;5080769;28;20090;-74
2022/09/23 06:49:32;;;;;;;6.07;3.78;;;6.80;78.70;;;;;;5061526;28;20126;-73
2022/09/23 06:51:58;;;;;;;6.55;4.20;;;6.90;78.70;;;;;;5064942;28;20036;-75
2022/09/23 06:54:26;;;;;;;7.95;4.30;;;6.90;78.80;;;;;;5083478;28;20032;-74
2022/09/23 06:56:53;;;;;;;6.60;3.72;;;6.90;78.80;;;;;;5068378;28;20015;-75
2022/09/23 06:59:18;;;;;;;6.68;4.38;;;7.00;78.80;;;;;;5077512;28;20597;-74
2022/09/23 07:01:46;;;;;;;6.25;4.55;;;7.10;79.00;;;;;;5060298;28;20492;-74
2022/09/23 07:04:11;;;;;;;6.25;4.45;;;7.10;79.00;;;;;;5061421;28;20027;-74
2022/09/23 07:06:37;;;;;;;8.13;5.55;;;7.20;79.10;;;;;;5043195;28;20033;-75
2022/09/23 07:09:04;;;;;;;7.50;4.57;;;7.30;79.00;;;;;;5069298;28;20037;-74
2022/09/23 07:11:29;;;;;;;7.38;5.00;;;7.40;79.20;;;;;;5063668;28;20141;-74
2022/09/23 07:13:55;;;;;;;11.00;5.40;;;7.50;79.10;;;;;;5074116;28;20563;-74
2022/09/23 07:16:20;;;;;;;8.23;5.55;;;7.60;79.30;;;;;;5072419;28;20036;-74
2022/09/23 07:18:46;;;;;;;9.13;5.63;;;7.60;79.20;;;;;;5061939;28;20389;-75
2022/09/23 07:24:34;;;;;;;8.65;5.22;;;7.90;79.70;;;;;;5064666;28;20134;-73
2022/09/23 07:27:00;;;;;;;5.22;4.53;;;8.10;79.10;;;;;;5047910;28;20036;-75
2022/09/23 07:29:26;;;;;;;4.75;3.55;;;8.20;79.00;;;;;;5076105;28;20028;-74
2022/09/23 07:31:51;;;;;;;7.47;4.47;;;8.40;78.90;;;;;;5075162;28;20515;-74
2022/09/23 07:34:17;;;;;;;9.00;5.78;;;8.60;78.90;;;;;;5058650;28;20036;-75
2022/09/23 07:36:43;;;;;;;7.85;3.20;;;8.70;78.80;;;;;;5074871;28;20446;-76
2022/09/23 07:39:10;;;;;;;3.85;2.67;;;8.90;78.70;;;;;;5054720;28;20479;-75
2022/09/23 07:41:35;;;;;;;5.32;2.50;;;9.10;78.60;;;;;;5061006;28;20514;-74
2022/09/23 07:44:01;;;;;;;3.75;2.78;;;9.30;78.70;;;;;;5078748;28;20126;-75
2022/09/23 07:46:29;;;;;;;2.92;2.63;;;9.40;78.40;;;;;;5059477;28;20443;-75
2022/09/23 07:48:54;;;;;;;4.47;2.63;;;9.60;78.30;;;;;;5075955;28;20114;-75
2022/09/23 07:51:22;;;;;;;8.00;2.83;;;9.80;78.10;;;;;;5077480;28;20839;-75
2022/09/23 07:53:51;;;;;;;6.60;2.83;;;9.90;77.90;;;;;;5076120;28;20044;-74
2022/09/23 07:56:18;;;;;;;8.73;3.17;;;10.00;77.70;;;;;;5059577;28;20058;-75
2022/09/23 07:58:44;;;;;;;3.28;2.45;;;10.10;77.50;;;;;;5057362;28;20028;-74
2022/09/23 08:01:10;;;;;;;2.63;2.08;;;10.30;77.30;;;;;;5075552;28;20527;-74
2022/09/23 08:03:36;;;;;;;3.10;2.47;;;10.30;76.90;;;;;;5053691;28;20043;-74
2022/09/23 08:06:14;;;;;;;3.05;2.30;;;10.40;77.00;;;;;;5070828;28;20032;-75
2022/09/23 08:08:43;;;;;;;2.95;2.40;;;10.60;77.10;;;;;;5049562;28;20557;-75
2022/09/23 08:11:10;;;;;;;6.15;3.38;;;10.70;76.80;;;;;;5078856;28;20044;-74
2022/09/23 08:13:36;;;;;;;6.10;3.95;;;10.80;76.70;;;;;;5049926;28;20041;-75
2022/09/23 08:16:01;;;;;;;6.25;4.43;;;10.90;76.40;;;;;;5075178;28;20520;-74
2022/09/23 08:18:27;;;;;;;5.07;3.00;;;10.90;76.20;;;;;;5077580;28;20036;-74
2022/09/23 08:20:52;;;;;;;4.97;2.55;;;11.00;76.10;;;;;;5057716;28;20131;-75
2022/09/23 08:23:19;;;;;;;4.10;2.92;;;11.10;76.10;;;;;;5063781;28;20714;-75
2022/09/23 08:25:46;;;;;;;4.20;2.58;;;11.20;76.00;;;;;;5078547;28;20035;-74
2022/09/23 08:28:15;;;;;;;5.90;2.50;;;11.30;75.90;;;;;;5055309;28;20729;-74
2022/09/23 08:30:42;;;;;;;5.80;3.38;;;11.40;75.70;;;;;;5071577;28;20093;-75
2022/09/23 08:33:08;;;;;;;3.17;2.88;;;11.60;75.60;;;;;;5054646;28;20467;-74
2022/09/23 08:35:34;;;;;;;5.85;3.30;;;11.70;75.40;;;;;;5054977;28;20482;-75
2022/09/23 08:37:59;;;;;;;5.15;2.70;;;11.80;75.20;;;;;;5090398;28;20581;-74
2022/09/23 08:40:25;;;;;;;4.60;3.67;;;12.00;75.10;;;;;;5059474;28;20058;-75
2022/09/23 08:42:50;;;;;;;6.32;3.42;;;12.10;74.80;;;;;;5058975;28;20119;-75
2022/09/23 08:45:25;;;;;;;3.72;2.70;;;12.20;74.60;;;;;;5074242;28;20093;-75
2022/09/23 08:47:59;;;;;;;3.42;2.30;;;12.30;74.50;;;;;;5053635;28;20068;-75
2022/09/23 08:50:44;;;;;;;6.78;2.92;;;12.40;74.30;;;;;;5053505;28;20061;-75
2022/09/23 08:53:23;;;;;;;3.80;2.78;;;12.60;74.20;;;;;;5072274;28;20163;-75
2022/09/23 08:55:50;;;;;;;3.40;2.20;;;12.80;73.90;;;;;;5075825;28;20036;-75
2022/09/23 08:58:54;;;;;;;4.28;2.58;;;13.00;73.70;;;;;;5057194;28;20039;-75
2022/09/23 09:01:32;;;;;;;5.03;2.50;;;13.10;73.30;;;;;;5067236;28;20032;-74
2022/09/23 09:04:02;;;;;;;3.50;2.95;;;13.30;72.90;;;;;;5054649;28;20032;-75
2022/09/23 09:06:36;;;;;;;3.42;2.53;;;13.40;72.70;;;;;;5056557;28;20063;-75
2022/09/23 09:09:03;;;;;;;3.50;2.50;;;13.60;72.50;;;;;;5076697;28;20160;-75
2022/09/23 09:11:39;;;;;;;4.15;2.30;;;13.70;72.00;;;;;;5055911;28;20044;-75
2022/09/23 09:14:31;;;;;;;6.75;3.17;;;13.80;71.80;;;;;;5055775;28;20094;-75
2022/09/23 09:16:59;;;;;;;3.17;2.67;;;14.00;71.60;;;;;;5046637;28;20609;-75
2022/09/23 09:19:51;;;;;;;5.72;2.80;;;14.10;71.20;;;;;;5063308;28;20098;-75
2022/09/23 09:22:23;;;;;;;;;;;14.30;70.90;;;;;;5054597;28;20055;-74
2022/09/23 09:24:49;;;;;;;4.30;2.53;;;14.50;70.90;;;;;;5064817;28;19943;-74
2022/09/23 09:27:15;;;;;;;3.22;2.45;;;14.80;70.60;;;;;;5059137;28;20524;-74
2022/09/23 09:29:42;;;;;;;4.10;2.72;;;14.90;70.30;;;;;;5075912;28;20040;-74
2022/09/23 09:32:35;;;;;;;3.20;2.78;;;15.10;70.10;;;;;;5042106;28;20501;-75
2022/09/23 09:35:07;;;;;;;2.78;2.40;;;15.40;69.50;;;;;;5076611;28;20131;-75
2022/09/23 09:37:40;;;;;;;3.92;2.80;;;15.60;69.20;;;;;;5058647;28;20051;-75
2022/09/23 09:40:10;;;;;;;2.78;2.53;;;15.80;68.70;;;;;;5053389;28;20025;-75
2022/09/23 09:42:39;;;;;;;3.45;2.70;;;15.90;68.20;;;;;;5056561;28;20032;-75
2022/09/23 09:45:25;;;;;;;5.05;2.45;;;16.00;67.90;;;;;;5073229;28;20021;-76
2022/09/23 09:48:09;;;;;;;5.28;2.67;;;16.20;67.60;;;;;;5036368;28;20029;-76
2022/09/23 09:50:48;;;;;;;3.80;2.65;;;16.30;67.30;;;;;;5069382;28;20115;-75
2022/09/23 09:53:24;;;;;;;4.00;2.50;;;16.40;67.50;;;;;;5073031;28;20508;-75
2022/09/23 09:55:58;;;;;;;6.20;2.50;;;16.60;66.70;;;;;;5067523;28;20723;-74
2022/09/23 09:58:26;;;;;;;3.08;2.70;;;16.70;66.30;;;;;;5057055;28;20755;-76
2022/09/23 10:00:51;;;;;;;3.03;2.80;;;16.90;66.10;;;;;;5076769;28;20507;-75
2022/09/23 10:03:25;;;;;;;5.90;3.00;;;16.90;65.60;;;;;;5076250;28;20040;-75
2022/09/23 10:05:52;;;;;;;3.42;2.50;;;17.10;65.30;;;;;;5033604;28;20241;-75
2022/09/23 10:08:31;;;;;;;3.60;3.30;;;17.30;65.20;;;;;;5053547;28;20090;-75
2022/09/23 10:11:14;;;;;;;2.40;2.17;;;17.50;64.50;;;;;;5054113;28;20509;-76
2022/09/23 10:13:40;;;;;;;4.05;3.08;;;17.60;64.10;;;;;;5057666;28;20060;-75
2022/09/23 10:16:06;;;;;;;5.28;3.15;;;17.80;64.00;;;;;;5071863;28;20438;-76
2022/09/23 10:18:43;;;;;;;3.72;3.33;;;18.00;63.60;;;;;;5053198;28;20504;-76
2022/09/23 10:21:13;;;;;;;3.40;3.10;;;18.20;63.00;;;;;;5067728;28;20031;-75
2022/09/23 10:23:41;;;;;;;3.05;2.50;;;18.40;62.70;;;;;;5050998;28;20041;-76
2022/09/23 10:26:11;;;;;;;4.68;2.83;;;18.60;62.20;;;;;;5043847;28;20036;-75
2022/09/23 10:28:47;;;;;;;3.13;2.80;;;18.80;61.90;;;;;;5048834;28;20496;-76
2022/09/23 10:31:23;;;;;;;4.82;2.75;;;19.00;61.50;;;;;;5045571;28;20039;-77
2022/09/23 10:33:53;;;;;;;4.30;2.88;;;19.30;60.60;;;;;;5071619;28;20144;-75
2022/09/23 10:36:19;;;;;;;2.85;2.60;;;19.40;60.70;;;;;;5044042;28;20553;-76
2022/09/23 10:38:46;;;;;;;3.50;2.42;;;19.70;60.30;;;;;;5049299;28;20565;-76
2022/09/23 10:47:26;;;;;;;2.83;2.53;;;20.40;58.50;;;;;;5037087;28;20156;-74
2022/09/23 10:50:02;;;;;;;4.68;2.78;;;20.50;58.60;;;;;;5059124;28;20044;-73
2022/09/23 10:52:31;;;;;;;5.30;2.67;;;20.70;58.10;;;;;;5052715;28;20032;-72
2022/09/23 10:55:31;;;;;;;2.80;2.58;;;20.90;57.90;;;;;;5040841;28;20033;-72
2022/09/23 10:58:16;;;;;;;3.53;2.67;;;21.10;56.90;;;;;;5039130;28;20055;-74
2022/09/23 11:01:05;;;;;;;3.28;2.67;;;21.30;56.50;;;;;;5037360;28;20092;-73
2022/09/23 11:03:55;;;;;;;3.08;2.35;;;21.60;56.40;;;;;;5058991;28;20044;-72
2022/09/23 11:06:55;;;;;;;4.65;2.22;;;21.80;55.90;;;;;;5055966;28;20036;-72
2022/09/23 11:09:39;;;;;;;6.20;2.80;;;21.90;54.80;;;;;;5057025;28;20374;-72
2022/09/23 11:12:55;;;;;;;3.33;2.20;;;22.20;54.10;;;;;;5059451;28;20452;-74
2022/09/23 11:15:44;;;;;;;2.70;2.50;;;22.40;54.10;;;;;;5043635;28;20172;-74
2022/09/23 11:18:37;;;;;;;3.80;2.90;;;22.60;54.30;;;;;;5026331;28;20059;-72
2022/09/23 11:21:20;;;;;;;2.60;2.40;;;22.70;53.00;;;;;;5036463;28;20121;-73
2022/09/23 11:24:34;;;;;;;2.65;2.42;;;22.90;52.70;;;;;;5048666;28;20039;-73
2022/09/23 11:27:08;;;;;;;4.03;2.40;;;22.90;51.60;;;;;;5045853;28;20041;-73
2022/09/23 11:29:55;;;;;;;4.63;2.60;;;23.10;52.50;;;;;;5055222;28;20099;-73
2022/09/23 11:32:20;;;;;;;5.82;2.25;;;23.20;50.70;;;;;;5057385;28;20024;-76
2022/09/23 11:34:56;;;;;;;4.03;2.65;;;23.30;51.80;;;;;;5069679;28;20034;-77
2022/09/23 11:37:24;;;;;;;4.07;2.38;;;23.40;50.80;;;;;;5075340;28;20037;-76
2022/09/23 11:39:56;;;;;;;4.07;2.50;;;23.60;51.00;;;;;;5042168;28;20024;-76
2022/09/23 11:42:22;;;;;;;;;;;23.70;50.50;;;;;;5052976;28;20339;-76
2022/09/23 11:44:57;;;;;;;3.45;1.90;;;23.90;50.50;;;;;;5076692;28;20611;-75
2022/09/23 11:47:45;;;;;;;2.85;2.00;;;24.10;49.90;;;;;;5054589;28;20068;-77
2022/09/23 11:50:32;;;;;;;2.85;2.10;;;24.30;49.10;;;;;;5043147;28;20514;-76
2022/09/23 11:53:21;;;;;;;2.65;2.10;;;24.50;48.70;;;;;;5074828;28;20048;-77
2022/09/23 11:55:54;;;;;;;5.35;1.80;;;24.60;49.20;;;;;;5041706;28;20119;-76
2022/09/23 11:58:27;;;;;;;2.15;1.75;;;24.80;49.00;;;;;;5041466;28;20647;-76
2022/09/23 12:01:07;;;;;;;4.13;1.80;;;25.00;48.30;;;;;;5069597;28;20097;-77
2022/09/23 12:03:52;;;;;;;5.90;1.88;;;25.20;47.20;;;;;;5051740;28;20123;-76
2022/09/23 12:06:21;;;;;;;5.25;1.75;;;25.30;47.40;;;;;;5070328;28;20032;-77
2022/09/23 12:08:49;;;;;;;1.55;1.10;;;25.40;47.30;;;;;;5046588;28;20032;-76
2022/09/23 12:11:33;;;;;;;4.03;1.73;;;25.60;47.00;;;;;;5074984;28;20396;-76
2022/09/23 12:14:26;;;;;;;11.02;2.00;;;25.70;46.60;;;;;;5072081;28;20039;-77
2022/09/23 12:17:16;;;;;;;1.52;1.30;;;25.80;45.10;;;;;;5053563;28;20107;-76
2022/09/23 12:19:56;;;;;;;1.70;1.60;;;25.90;45.50;;;;;;5057635;28;20064;-76
2022/09/23 12:22:44;;;;;;;3.42;1.60;;;26.10;45.70;;;;;;5057342;28;20044;-76
2022/09/23 12:25:33;;;;;;;2.50;1.55;;;26.20;44.50;;;;;;5053534;28;20037;-75
2022/09/23 12:28:02;;;;;;;2.75;1.48;;;26.30;43.90;;;;;;5069725;28;20082;-76
2022/09/23 12:30:29;;;;;;;4.07;1.30;;;26.40;44.80;;;;;;5055828;28;20028;-72
2022/09/23 12:33:15;;;;;;;3.08;1.63;;;26.40;44.50;;;;;;5037309;28;20106;-72
2022/09/23 12:35:41;;;;;;;2.40;1.58;;;26.50;43.70;;;;;;5069204;28;20032;-71
2022/09/23 12:38:34;;;;;;;3.72;1.65;;;26.60;44.40;;;;;;5040168;28;20029;-73
2022/09/23 12:41:00;;;;;;;1.73;1.63;;;26.60;43.50;;;;;;5027320;28;20028;-74
2022/09/23 12:43:33;;;;;;;1.92;1.63;;;26.70;43.90;;;;;;5084977;28;20032;-74
2022/09/23 12:46:17;;;;;;;1.88;1.65;;;26.80;43.00;;;;;;5041416;28;20170;-72
2022/09/23 12:49:04;;;;;;;1.85;1.75;;;26.90;42.40;;;;;;5060155;28;20071;-73
2022/09/23 12:51:33;;;;;;;2.20;1.65;;;27.00;43.10;;;;;;5070471;28;20048;-72
2022/09/23 12:54:04;;;;;;;5.30;1.90;;;27.10;42.90;;;;;;5024756;28;20040;-73
2022/09/23 12:56:33;;;;;;;1.60;1.40;;;27.20;42.30;;;;;;5058181;28;20787;-73
2022/09/23 12:59:29;;;;;;;1.67;1.50;;;27.30;42.50;;;;;;5054627;28;20058;-73
2022/09/23 13:01:55;;;;;;;3.10;1.67;;;27.40;41.30;;;;;;5055400;28;20063;-72
2022/09/23 13:07:18;;;;;;;2.45;1.77;;;27.50;41.40;;;;;;5067170;28;20047;-73
2022/09/23 13:09:48;;;;;;;1.92;1.73;;;27.50;41.80;;;;;;5037594;28;20028;-74
2022/09/23 13:12:22;;;;;;;2.80;1.63;;;27.60;41.50;;;;;;5067576;28;20040;-76
2022/09/23 13:14:48;;;;;;;1.98;1.33;;;27.70;41.30;;;;;;5071188;28;20073;-77
2022/09/23 13:17:36;;;;;;;1.55;1.45;;;27.80;41.50;;;;;;5048651;28;20043;-77
2022/09/23 13:20:23;;;;;;;2.72;1.58;;;27.80;40.40;;;;;;5050270;28;20028;-76
2022/09/23 13:22:50;;;;;;;2.20;1.40;;;27.90;40.90;;;;;;5052383;28;20044;-75
2022/09/23 13:25:22;;;;;;;2.15;1.50;;;27.80;40.70;;;;;;5069600;28;20039;-76
2022/09/23 13:27:49;;;;;;;6.43;1.70;;;27.80;40.40;;;;;;5057998;28;20097;-76
2022/09/23 13:30:18;;;;;;;2.22;1.67;;;27.70;40.40;;;;;;5054409;28;20514;-76
2022/09/23 13:32:54;;;;;;;3.60;1.65;;;27.70;40.40;;;;;;5071966;28;20093;-76
2022/09/23 13:35:25;;;;;;;2.85;1.70;;;27.60;40.00;;;;;;5043664;28;20034;-76